createdAt,value
2018-03-08T00:02:12.653Z,83.10
2018-03-08T00:07:16.503Z,83.90
2018-03-08T00:12:20.715Z,83.50
2018-03-08T00:22:29.770Z,83.20
2018-03-08T00:27:32.859Z,83.20
2018-03-08T00:32:35.943Z,82.90
2018-03-08T00:37:39.803Z,82.40
2018-03-08T00:42:42.895Z,81.80
2018-03-08T00:47:45.998Z,82.10
2018-03-08T00:57:54.426Z,80.30
2018-03-08T01:02:57.525Z,80.40
2018-03-08T01:08:01.393Z,79.90
2018-03-08T01:13:05.597Z,79.20
2018-03-08T01:23:14.640Z,78.50
2018-03-08T01:28:17.732Z,78.80
2018-03-08T01:33:21.975Z,79.00
2018-03-08T01:43:30.649Z,79.60
2018-03-08T01:48:34.136Z,79.40
2018-03-08T01:53:37.988Z,80.30
2018-03-08T01:58:41.081Z,80.60
2018-03-08T02:03:44.948Z,80.60
2018-03-08T02:08:48.796Z,80.60
2018-03-08T02:18:56.341Z,80.70
2018-03-08T02:29:04.348Z,81.30
2018-03-08T02:34:07.836Z,81.30
2018-03-08T02:39:10.937Z,81.50
2018-03-08T02:44:14.413Z,81.50
2018-03-08T02:54:21.968Z,81.40
2018-03-08T02:59:26.189Z,81.40
2018-03-08T03:04:29.684Z,81.50
2018-03-08T03:09:33.919Z,81.70
2018-03-08T03:19:41.901Z,81.60
2018-03-08T03:24:46.134Z,82.00
2018-03-08T03:34:54.032Z,81.50
2018-03-08T03:39:58.780Z,81.90
2018-03-08T03:45:02.992Z,81.90
2018-03-08T03:50:07.605Z,82.10
2018-03-08T03:55:10.674Z,82.70
2018-03-08T04:00:13.764Z,82.80
2018-03-08T04:10:22.779Z,83.10
2018-03-08T04:15:25.867Z,83.50
2018-03-08T04:20:29.715Z,83.20
2018-03-08T04:25:33.564Z,83.80
2018-03-08T04:30:37.778Z,83.80
2018-03-08T04:40:45.688Z,84.00
2018-03-08T04:45:48.767Z,83.40
2018-03-08T04:50:53.364Z,83.30
2018-03-08T04:55:57.591Z,83.30
2018-03-08T05:11:10.691Z,82.90
2018-03-08T05:16:13.767Z,82.50
2018-03-08T05:26:22.559Z,82.80
2018-03-08T05:31:26.411Z,82.10
2018-03-08T05:36:29.528Z,82.10
2018-03-08T05:41:32.607Z,82.00
2018-03-08T05:46:35.714Z,82.20
2018-03-08T05:56:45.837Z,82.30
2018-03-08T06:01:50.089Z,82.60
2018-03-08T06:06:53.165Z,82.60
2018-03-08T06:11:56.252Z,82.70
2018-03-08T06:16:59.352Z,83.20
2018-03-08T06:27:09.658Z,83.90
2018-03-08T06:32:13.512Z,83.30
2018-03-08T06:37:18.745Z,83.30
2018-03-08T06:42:22.599Z,82.60
2018-03-08T06:47:25.704Z,81.50
2018-03-08T06:52:29.163Z,76.80
2018-03-08T06:57:32.241Z,73.10
2018-03-08T07:02:35.320Z,69.40
2018-03-08T07:07:38.793Z,67.50
2018-03-08T07:12:42.274Z,65.20
2018-03-08T07:17:46.111Z,63.90
2018-03-08T07:22:49.180Z,62.40
2018-03-08T07:27:52.688Z,58.70
2018-03-08T07:32:56.155Z,61.20
2018-03-08T07:37:59.685Z,59.40
2018-03-08T07:43:04.271Z,58.10
2018-03-08T07:48:07.349Z,61.20
2018-03-08T07:53:13.273Z,62.90
2018-03-08T07:58:16.765Z,63.70
2018-03-08T08:03:20.248Z,62.90
2018-03-08T08:13:39.508Z,63.90
2018-03-08T08:18:43.356Z,65.70
2018-03-08T08:23:47.579Z,66.00
2018-03-08T08:28:50.880Z,58.90
2018-03-08T08:33:54.367Z,58.10
2018-03-08T08:38:58.599Z,60.00
2018-03-08T08:44:02.084Z,63.70
2018-03-08T08:59:15.568Z,67.60
2018-03-08T09:09:23.090Z,68.30
2018-03-08T09:19:31.382Z,70.30
2018-03-08T09:24:34.504Z,70.30
2018-03-08T09:29:37.587Z,70.60
2018-03-08T09:34:40.692Z,69.90
2018-03-08T09:39:44.173Z,68.70
2018-03-08T09:54:58.642Z,64.60
2018-03-08T10:00:02.495Z,63.30
2018-03-08T10:05:06.732Z,61.30
2018-03-08T10:15:15.029Z,59.50
2018-03-08T10:25:23.707Z,62.50
2018-03-08T10:30:27.932Z,62.60
2018-03-08T10:45:43.799Z,62.80
2018-03-08T10:50:46.903Z,63.10
2018-03-08T10:55:49.991Z,62.00
2018-03-08T11:00:54.996Z,60.90
2018-03-08T11:11:02.919Z,61.30
2018-03-08T11:16:06.403Z,60.90
2018-03-08T11:21:09.879Z,60.10
2018-03-08T11:26:13.351Z,60.80
2018-03-08T11:36:22.384Z,58.90
2018-03-08T11:41:26.619Z,59.10
2018-03-08T11:56:38.686Z,58.40
2018-03-08T12:01:41.775Z,59.50
2018-03-08T12:06:45.204Z,59.20
2018-03-08T12:11:48.283Z,59.90
2018-03-08T12:16:52.168Z,59.70
2018-03-08T12:21:55.248Z,59.90
2018-03-08T12:26:59.086Z,60.50
2018-03-08T12:32:02.555Z,60.80
2018-03-08T12:37:06.653Z,60.70
2018-03-08T12:42:10.140Z,61.90
2018-03-08T12:57:23.295Z,63.10
2018-03-08T13:07:31.580Z,63.20
2018-03-08T13:12:35.443Z,62.70
2018-03-08T13:17:38.527Z,62.70
2018-03-08T13:22:42.387Z,63.60
2018-03-08T13:27:45.891Z,63.70
2018-03-08T13:32:49.356Z,64.70
2018-03-08T13:37:54.532Z,64.60
2018-03-08T13:42:57.628Z,64.10
2018-03-08T13:48:01.516Z,63.90
2018-03-08T13:53:05.600Z,63.70
2018-03-08T13:58:09.440Z,63.20
2018-03-08T14:03:13.228Z,62.80
2018-03-08T14:08:17.429Z,64.00
2018-03-08T14:13:20.520Z,64.00
2018-03-08T14:18:25.061Z,66.50
2018-03-08T14:23:29.664Z,66.00
2018-03-08T14:28:33.516Z,66.00
2018-03-08T14:33:36.620Z,66.20
2018-03-08T14:43:44.166Z,74.10
2018-03-08T14:58:57.095Z,79.60
2018-03-08T15:04:00.927Z,80.90
2018-03-08T15:09:04.088Z,80.60
2018-03-08T15:14:07.552Z,80.40
2018-03-08T15:24:15.897Z,78.50
2018-03-08T15:29:18.982Z,79.20
2018-03-08T15:34:22.065Z,78.00
2018-03-08T15:39:26.709Z,78.80
2018-03-08T15:54:39.505Z,83.00
2018-03-08T16:15:33.856Z,88.10
2018-03-08T16:20:36.944Z,88.60
2018-03-08T16:25:40.026Z,89.40
2018-03-08T16:30:46.289Z,88.30
2018-03-08T16:56:07.141Z,84.50
2018-03-08T17:11:20.687Z,86.40
2018-03-08T17:26:33.592Z,86.20
2018-03-08T17:36:41.889Z,85.40
2018-03-08T17:41:45.005Z,86.00
2018-03-08T17:46:48.097Z,86.00
2018-03-08T17:56:57.112Z,85.90
2018-03-08T18:12:10.391Z,86.20
2018-03-08T18:17:13.483Z,86.70
2018-03-08T18:22:16.559Z,86.70
2018-03-08T18:27:20.045Z,86.70
2018-03-08T18:32:24.645Z,86.90
2018-03-08T18:37:28.872Z,87.40
2018-03-08T18:42:32.735Z,88.10
2018-03-08T18:52:41.210Z,87.20
2018-03-08T18:57:44.263Z,87.30
2018-03-08T19:02:47.628Z,86.60
2018-03-08T19:12:55.145Z,86.70
2018-03-08T19:17:58.220Z,86.30
2018-03-08T19:28:07.780Z,85.50
2018-03-08T19:38:15.308Z,85.30
2018-03-08T19:43:19.922Z,85.30
2018-03-08T19:48:24.599Z,85.60
2018-03-08T19:53:28.120Z,85.50
2018-03-08T19:58:32.736Z,85.80
2018-03-08T20:03:37.008Z,85.50
2018-03-08T20:08:40.890Z,85.40
2018-03-08T20:13:44.742Z,85.90
2018-03-08T20:18:49.586Z,84.90
2018-03-08T20:23:54.212Z,84.90
2018-03-08T20:28:58.813Z,85.20
2018-03-08T20:34:03.100Z,85.10
2018-03-08T20:39:06.169Z,84.80
2018-03-08T20:49:14.108Z,84.80
2018-03-08T20:54:17.168Z,85.10
2018-03-08T20:59:21.058Z,85.40
2018-03-08T21:04:24.143Z,85.30
2018-03-08T21:09:28.066Z,85.70
2018-03-08T21:14:31.352Z,85.80
2018-03-08T21:19:36.278Z,85.80
2018-03-08T21:24:40.124Z,86.10
2018-03-08T21:34:47.619Z,86.40
2018-03-08T21:44:55.912Z,86.40
2018-03-08T21:49:59.371Z,86.90
2018-03-08T22:00:07.296Z,87.30
2018-03-08T22:10:16.840Z,88.10
2018-03-08T22:15:19.907Z,88.30
2018-03-08T22:20:22.988Z,88.50
2018-03-08T22:25:27.231Z,89.00
2018-03-08T22:30:30.350Z,88.90
2018-03-08T22:35:33.434Z,89.10
2018-03-08T22:45:45.288Z,88.40
2018-03-08T22:50:49.499Z,87.50
2018-03-08T22:55:52.620Z,87.20
2018-03-08T23:06:00.137Z,87.30
2018-03-08T23:11:03.214Z,87.30
2018-03-08T23:16:06.312Z,87.10
2018-03-08T23:21:09.399Z,87.00
2018-03-08T23:26:13.818Z,86.80
2018-03-08T23:31:16.900Z,86.60
2018-03-08T23:36:19.987Z,86.00
2018-03-08T23:46:27.512Z,85.30
2018-03-08T23:51:31.008Z,85.00
